Terminal Aerodrome Forecast
Issued by NWS Boise, ID

Home | Current Version | Previous Version | Text Only | Print | Product List | Glossary On
Versions: 1 2 3 4 5 6 7 8 9 10 11 12 13 14 15 16 17 18 19 20
000
FTUS45 KBOI 230520
TAFBOI
TAF
KBOI 230520Z 2306/2406 13010KT P6SM -SHRA BKN070 OVC100
     FM230800 13011KT P6SM VCSH SCT070 OVC100
      TEMPO 2312/2315 -SHRA BKN070
     FM231500 13010KT P6SM -SHRA OVC060
     FM240200 13007KT P6SM VCSH BKN050 OVC090=

USA.gov is the U.S. government's official web portal to all federal, state and local government web resources and services.